sensor_id;sensor_type;location;lat;lon;timestamp;temperature;humidity
71173;DHT22;58875;51.996;4.504;2022-07-06T00:01:57;14.55;75.67
71173;DHT22;58875;51.996;4.504;2022-07-06T00:04:23;14.58;75.04
71173;DHT22;58875;51.996;4.504;2022-07-06T00:06:49;14.52;75.35
71173;DHT22;58875;51.996;4.504;2022-07-06T00:09:14;14.51;74.36
71173;DHT22;58875;51.996;4.504;2022-07-06T00:11:40;14.49;74.81
71173;DHT22;58875;51.996;4.504;2022-07-06T00:14:05;14.45;74.45
71173;DHT22;58875;51.996;4.504;2022-07-06T00:16:31;14.46;74.49
71173;DHT22;58875;51.996;4.504;2022-07-06T00:18:57;14.48;74.77
71173;DHT22;58875;51.996;4.504;2022-07-06T00:21:23;14.38;74.98
71173;DHT22;58875;51.996;4.504;2022-07-06T00:23:48;14.39;74.72
71173;DHT22;58875;51.996;4.504;2022-07-06T00:26:14;14.32;75.14
71173;DHT22;58875;51.996;4.504;2022-07-06T00:28:40;14.32;75.19
71173;DHT22;58875;51.996;4.504;2022-07-06T00:31:05;14.32;75.05
71173;DHT22;58875;51.996;4.504;2022-07-06T00:33:31;14.34;75.02
71173;DHT22;58875;51.996;4.504;2022-07-06T00:35:57;14.32;75.01
71173;DHT22;58875;51.996;4.504;2022-07-06T00:38:23;14.27;75.76
71173;DHT22;58875;51.996;4.504;2022-07-06T00:40:49;14.30;75.43
71173;DHT22;58875;51.996;4.504;2022-07-06T00:43:15;14.24;75.95
71173;DHT22;58875;51.996;4.504;2022-07-06T00:45:47;14.25;75.97
71173;DHT22;58875;51.996;4.504;2022-07-06T00:48:13;14.25;75.94
71173;DHT22;58875;51.996;4.504;2022-07-06T00:50:42;14.28;75.58
71173;DHT22;58875;51.996;4.504;2022-07-06T00:53:08;14.32;75.18
71173;DHT22;58875;51.996;4.504;2022-07-06T00:55:36;14.39;75.09
71173;DHT22;58875;51.996;4.504;2022-07-06T00:58:05;14.44;74.81
71173;DHT22;58875;51.996;4.504;2022-07-06T01:00:32;14.44;74.46
71173;DHT22;58875;51.996;4.504;2022-07-06T01:02:59;14.46;74.22
71173;DHT22;58875;51.996;4.504;2022-07-06T01:05:24;14.48;74.22
71173;DHT22;58875;51.996;4.504;2022-07-06T01:07:53;14.48;74.20
71173;DHT22;58875;51.996;4.504;2022-07-06T01:10:20;14.52;73.86
71173;DHT22;58875;51.996;4.504;2022-07-06T01:12:47;14.51;73.57
71173;DHT22;58875;51.996;4.504;2022-07-06T01:15:16;14.52;74.06
71173;DHT22;58875;51.996;4.504;2022-07-06T01:17:43;14.42;73.72
71173;DHT22;58875;51.996;4.504;2022-07-06T01:22:43;14.39;75.10
71173;DHT22;58875;51.996;4.504;2022-07-06T01:25:09;14.32;74.38
71173;DHT22;58875;51.996;4.504;2022-07-06T01:27:36;14.21;75.09
71173;DHT22;58875;51.996;4.504;2022-07-06T01:30:07;14.16;74.92
71173;DHT22;58875;51.996;4.504;2022-07-06T01:32:34;14.10;75.25
71173;DHT22;58875;51.996;4.504;2022-07-06T01:35:00;14.06;75.40
71173;DHT22;58875;51.996;4.504;2022-07-06T01:37:26;14.03;75.46
71173;DHT22;58875;51.996;4.504;2022-07-06T01:39:51;14.03;75.59
71173;DHT22;58875;51.996;4.504;2022-07-06T01:42:17;14.00;75.90
71173;DHT22;58875;51.996;4.504;2022-07-06T01:44:43;13.97;76.01
71173;DHT22;58875;51.996;4.504;2022-07-06T01:47:10;13.91;76.47
71173;DHT22;58875;51.996;4.504;2022-07-06T01:49:36;13.93;76.46
71173;DHT22;58875;51.996;4.504;2022-07-06T01:52:02;13.91;76.23
71173;DHT22;58875;51.996;4.504;2022-07-06T01:54:28;13.86;75.74
71173;DHT22;58875;51.996;4.504;2022-07-06T01:56:54;13.77;76.17
71173;DHT22;58875;51.996;4.504;2022-07-06T01:59:20;13.73;76.13
71173;DHT22;58875;51.996;4.504;2022-07-06T02:01:45;13.71;76.22
71173;DHT22;58875;51.996;4.504;2022-07-06T02:04:13;13.76;76.33
71173;DHT22;58875;51.996;4.504;2022-07-06T02:06:39;13.79;76.24
71173;DHT22;58875;51.996;4.504;2022-07-06T02:09:04;13.74;76.82
71173;DHT22;58875;51.996;4.504;2022-07-06T02:11:30;13.74;76.68
71173;DHT22;58875;51.996;4.504;2022-07-06T02:13:56;13.66;76.51
71173;DHT22;58875;51.996;4.504;2022-07-06T02:16:21;13.65;76.19
71173;DHT22;58875;51.996;4.504;2022-07-06T02:18:46;13.59;76.54
71173;DHT22;58875;51.996;4.504;2022-07-06T02:21:12;13.63;76.59
71173;DHT22;58875;51.996;4.504;2022-07-06T02:23:38;13.60;77.09
71173;DHT22;58875;51.996;4.504;2022-07-06T02:26:04;13.63;77.01
71173;DHT22;58875;51.996;4.504;2022-07-06T02:28:30;13.65;77.19
71173;DHT22;58875;51.996;4.504;2022-07-06T02:30:55;13.62;77.25
71173;DHT22;58875;51.996;4.504;2022-07-06T02:33:21;13.60;77.10
71173;DHT22;58875;51.996;4.504;2022-07-06T02:35:47;13.58;77.49
71173;DHT22;58875;51.996;4.504;2022-07-06T02:38:12;13.58;77.29
71173;DHT22;58875;51.996;4.504;2022-07-06T02:40:38;13.60;77.18
71173;DHT22;58875;51.996;4.504;2022-07-06T02:43:04;13.66;77.14
71173;DHT22;58875;51.996;4.504;2022-07-06T02:45:30;13.63;77.30
71173;DHT22;58875;51.996;4.504;2022-07-06T02:47:55;13.60;77.58
71173;DHT22;58875;51.996;4.504;2022-07-06T02:50:23;13.56;77.29
71173;DHT22;58875;51.996;4.504;2022-07-06T02:52:49;13.50;77.46
71173;DHT22;58875;51.996;4.504;2022-07-06T02:55:14;13.48;77.49
71173;DHT22;58875;51.996;4.504;2022-07-06T02:57:40;13.49;77.38
71173;DHT22;58875;51.996;4.504;2022-07-06T03:00:09;13.42;77.40
71173;DHT22;58875;51.996;4.504;2022-07-06T03:02:38;13.40;77.72
71173;DHT22;58875;51.996;4.504;2022-07-06T03:05:05;13.40;78.09
71173;DHT22;58875;51.996;4.504;2022-07-06T03:07:30;13.43;77.90
71173;DHT22;58875;51.996;4.504;2022-07-06T03:09:56;13.42;77.93
71173;DHT22;58875;51.996;4.504;2022-07-06T03:12:21;13.46;77.93
71173;DHT22;58875;51.996;4.504;2022-07-06T03:14:47;13.48;77.82
71173;DHT22;58875;51.996;4.504;2022-07-06T03:17:12;13.46;77.92
71173;DHT22;58875;51.996;4.504;2022-07-06T03:19:38;13.46;77.85
71173;DHT22;58875;51.996;4.504;2022-07-06T03:22:04;13.43;77.48
71173;DHT22;58875;51.996;4.504;2022-07-06T03:24:29;13.39;77.58
71173;DHT22;58875;51.996;4.504;2022-07-06T03:26:55;13.38;77.65
71173;DHT22;58875;51.996;4.504;2022-07-06T03:29:20;13.35;77.37
71173;DHT22;58875;51.996;4.504;2022-07-06T03:31:46;13.32;77.69
71173;DHT22;58875;51.996;4.504;2022-07-06T03:34:12;13.35;77.69
71173;DHT22;58875;51.996;4.504;2022-07-06T03:36:38;13.36;77.81
71173;DHT22;58875;51.996;4.504;2022-07-06T03:39:04;13.40;78.08
71173;DHT22;58875;51.996;4.504;2022-07-06T03:41:29;13.46;77.92
71173;DHT22;58875;51.996;4.504;2022-07-06T03:43:55;13.52;78.28
71173;DHT22;58875;51.996;4.504;2022-07-06T03:46:20;13.48;78.75
71173;DHT22;58875;51.996;4.504;2022-07-06T03:48:46;13.49;78.32
71173;DHT22;58875;51.996;4.504;2022-07-06T03:51:12;13.55;78.14
71173;DHT22;58875;51.996;4.504;2022-07-06T03:53:37;13.56;77.71
71173;DHT22;58875;51.996;4.504;2022-07-06T03:56:03;13.59;77.75
71173;DHT22;58875;51.996;4.504;2022-07-06T03:58:47;13.59;77.52
71173;DHT22;58875;51.996;4.504;2022-07-06T04:01:13;13.66;77.49
71173;DHT22;58875;51.996;4.504;2022-07-06T04:03:38;13.71;77.30
71173;DHT22;58875;51.996;4.504;2022-07-06T04:06:04;13.79;77.09
71173;DHT22;58875;51.996;4.504;2022-07-06T04:08:30;13.80;77.05
71173;DHT22;58875;51.996;4.504;2022-07-06T04:10:55;13.84;76.88
71173;DHT22;58875;51.996;4.504;2022-07-06T04:13:21;13.99;76.80
71173;DHT22;58875;51.996;4.504;2022-07-06T04:15:47;14.01;76.35
71173;DHT22;58875;51.996;4.504;2022-07-06T04:18:13;14.06;76.16
71173;DHT22;58875;51.996;4.504;2022-07-06T04:20:38;14.17;75.94
71173;DHT22;58875;51.996;4.504;2022-07-06T04:23:04;14.14;76.20
71173;DHT22;58875;51.996;4.504;2022-07-06T04:25:30;14.14;76.72
71173;DHT22;58875;51.996;4.504;2022-07-06T04:27:56;14.18;75.97
71173;DHT22;58875;51.996;4.504;2022-07-06T04:30:24;14.17;76.19
71173;DHT22;58875;51.996;4.504;2022-07-06T04:32:50;14.14;76.18
71173;DHT22;58875;51.996;4.504;2022-07-06T04:35:15;14.18;76.11
71173;DHT22;58875;51.996;4.504;2022-07-06T04:37:41;14.24;76.20
71173;DHT22;58875;51.996;4.504;2022-07-06T04:40:07;14.24;76.12
71173;DHT22;58875;51.996;4.504;2022-07-06T04:42:33;14.32;75.93
71173;DHT22;58875;51.996;4.504;2022-07-06T04:44:58;14.44;75.14
71173;DHT22;58875;51.996;4.504;2022-07-06T04:47:24;14.48;74.48
71173;DHT22;58875;51.996;4.504;2022-07-06T04:49:49;14.48;74.01
71173;DHT22;58875;51.996;4.504;2022-07-06T04:52:15;14.61;73.70
71173;DHT22;58875;51.996;4.504;2022-07-06T04:54:40;14.59;73.36
71173;DHT22;58875;51.996;4.504;2022-07-06T04:57:06;14.65;73.65
71173;DHT22;58875;51.996;4.504;2022-07-06T04:59:32;14.71;73.27
71173;DHT22;58875;51.996;4.504;2022-07-06T05:01:57;14.75;73.19
71173;DHT22;58875;51.996;4.504;2022-07-06T05:04:23;14.76;73.13
71173;DHT22;58875;51.996;4.504;2022-07-06T05:06:50;14.75;73.38
71173;DHT22;58875;51.996;4.504;2022-07-06T05:09:15;14.85;73.01
71173;DHT22;58875;51.996;4.504;2022-07-06T05:11:41;14.93;72.91
71173;DHT22;58875;51.996;4.504;2022-07-06T05:14:07;15.02;72.26
71173;DHT22;58875;51.996;4.504;2022-07-06T05:16:32;15.03;72.38
71173;DHT22;58875;51.996;4.504;2022-07-06T05:18:58;15.10;72.63
71173;DHT22;58875;51.996;4.504;2022-07-06T05:21:24;15.10;72.25
71173;DHT22;58875;51.996;4.504;2022-07-06T05:23:50;15.14;71.78
71173;DHT22;58875;51.996;4.504;2022-07-06T05:26:16;15.22;71.72
71173;DHT22;58875;51.996;4.504;2022-07-06T05:28:42;15.31;71.74
71173;DHT22;58875;51.996;4.504;2022-07-06T05:31:07;15.40;71.02
71173;DHT22;58875;51.996;4.504;2022-07-06T05:33:33;15.50;70.25
71173;DHT22;58875;51.996;4.504;2022-07-06T05:35:59;15.58;69.75
71173;DHT22;58875;51.996;4.504;2022-07-06T05:38:25;15.65;69.49
71173;DHT22;58875;51.996;4.504;2022-07-06T05:40:50;15.71;69.15
71173;DHT22;58875;51.996;4.504;2022-07-06T05:43:17;15.85;68.33
71173;DHT22;58875;51.996;4.504;2022-07-06T05:45:43;15.90;68.83
71173;DHT22;58875;51.996;4.504;2022-07-06T05:48:11;15.90;68.42
71173;DHT22;58875;51.996;4.504;2022-07-06T05:50:55;15.94;67.43
71173;DHT22;58875;51.996;4.504;2022-07-06T05:53:21;16.01;67.70
71173;DHT22;58875;51.996;4.504;2022-07-06T05:55:47;16.06;67.98
71173;DHT22;58875;51.996;4.504;2022-07-06T05:58:13;16.13;67.70
71173;DHT22;58875;51.996;4.504;2022-07-06T06:00:41;16.15;66.88
71173;DHT22;58875;51.996;4.504;2022-07-06T06:03:07;16.29;67.40
71173;DHT22;58875;51.996;4.504;2022-07-06T06:05:32;16.39;67.30
71173;DHT22;58875;51.996;4.504;2022-07-06T06:07:58;16.43;65.34
71173;DHT22;58875;51.996;4.504;2022-07-06T06:10:24;16.48;65.70
71173;DHT22;58875;51.996;4.504;2022-07-06T06:12:50;16.59;65.76
71173;DHT22;58875;51.996;4.504;2022-07-06T06:15:19;16.70;64.98
71173;DHT22;58875;51.996;4.504;2022-07-06T06:17:45;16.84;64.11
71173;DHT22;58875;51.996;4.504;2022-07-06T06:21:06;17.03;64.06
71173;DHT22;58875;51.996;4.504;2022-07-06T06:23:15;17.15;59.77
71173;DHT22;58875;51.996;4.504;2022-07-06T06:25:40;17.36;61.42
71173;DHT22;58875;51.996;4.504;2022-07-06T06:28:09;17.48;60.71
71173;DHT22;58875;51.996;4.504;2022-07-06T06:30:35;17.56;60.27
71173;DHT22;58875;51.996;4.504;2022-07-06T06:33:12;17.75;59.12
71173;DHT22;58875;51.996;4.504;2022-07-06T06:35:45;17.92;59.35
71173;DHT22;58875;51.996;4.504;2022-07-06T06:38:11;17.97;57.47
71173;DHT22;58875;51.996;4.504;2022-07-06T06:40:37;18.00;56.89
71173;DHT22;58875;51.996;4.504;2022-07-06T06:43:03;18.14;56.81
71173;DHT22;58875;51.996;4.504;2022-07-06T06:45:29;18.14;56.75
71173;DHT22;58875;51.996;4.504;2022-07-06T06:47:55;18.26;56.76
71173;DHT22;58875;51.996;4.504;2022-07-06T06:50:20;18.38;56.22
71173;DHT22;58875;51.996;4.504;2022-07-06T06:52:48;18.43;55.32
71173;DHT22;58875;51.996;4.504;2022-07-06T06:55:13;18.61;54.15
71173;DHT22;58875;51.996;4.504;2022-07-06T06:57:39;18.94;54.22
71173;DHT22;58875;51.996;4.504;2022-07-06T07:00:05;18.98;55.30
71173;DHT22;58875;51.996;4.504;2022-07-06T07:02:31;19.18;55.12
71173;DHT22;58875;51.996;4.504;2022-07-06T07:05:00;19.37;54.21
71173;DHT22;58875;51.996;4.504;2022-07-06T07:07:26;19.25;53.03
71173;DHT22;58875;51.996;4.504;2022-07-06T07:09:52;19.08;52.93
71173;DHT22;58875;51.996;4.504;2022-07-06T07:12:17;19.05;52.76
71173;DHT22;58875;51.996;4.504;2022-07-06T07:14:44;19.03;53.10
71173;DHT22;58875;51.996;4.504;2022-07-06T07:17:10;19.20;54.35
71173;DHT22;58875;51.996;4.504;2022-07-06T07:19:37;19.53;52.49
71173;DHT22;58875;51.996;4.504;2022-07-06T07:22:03;19.75;52.27
71173;DHT22;58875;51.996;4.504;2022-07-06T07:24:28;19.74;52.90
71173;DHT22;58875;51.996;4.504;2022-07-06T07:26:54;19.84;51.11
71173;DHT22;58875;51.996;4.504;2022-07-06T07:29:19;19.85;49.31
71173;DHT22;58875;51.996;4.504;2022-07-06T07:31:45;19.75;51.94
71173;DHT22;58875;51.996;4.504;2022-07-06T07:34:10;19.74;49.33
71173;DHT22;58875;51.996;4.504;2022-07-06T07:36:36;19.97;47.45
71173;DHT22;58875;51.996;4.504;2022-07-06T07:39:04;19.90;50.86
71173;DHT22;58875;51.996;4.504;2022-07-06T07:41:30;20.03;49.78
71173;DHT22;58875;51.996;4.504;2022-07-06T07:43:55;20.28;48.42
71173;DHT22;58875;51.996;4.504;2022-07-06T07:46:21;20.46;48.51
71173;DHT22;58875;51.996;4.504;2022-07-06T07:48:46;20.52;46.59
71173;DHT22;58875;51.996;4.504;2022-07-06T07:51:12;20.63;47.81
71173;DHT22;58875;51.996;4.504;2022-07-06T07:53:38;20.77;45.92
71173;DHT22;58875;51.996;4.504;2022-07-06T07:56:03;20.80;46.06
71173;DHT22;58875;51.996;4.504;2022-07-06T07:58:29;20.65;43.43
71173;DHT22;58875;51.996;4.504;2022-07-06T08:00:55;20.45;46.57
71173;DHT22;58875;51.996;4.504;2022-07-06T08:03:21;20.41;45.05
71173;DHT22;58875;51.996;4.504;2022-07-06T08:05:46;20.53;44.52
71173;DHT22;58875;51.996;4.504;2022-07-06T08:08:16;20.44;45.86
71173;DHT22;58875;51.996;4.504;2022-07-06T08:10:42;20.69;46.14
71173;DHT22;58875;51.996;4.504;2022-07-06T08:13:07;21.11;46.34
71173;DHT22;58875;51.996;4.504;2022-07-06T08:15:34;21.31;45.56
71173;DHT22;58875;51.996;4.504;2022-07-06T08:17:59;21.59;42.74
71173;DHT22;58875;51.996;4.504;2022-07-06T08:20:25;21.74;44.05
71173;DHT22;58875;51.996;4.504;2022-07-06T08:22:52;21.89;39.60
71173;DHT22;58875;51.996;4.504;2022-07-06T08:25:18;21.68;43.08
71173;DHT22;58875;51.996;4.504;2022-07-06T08:27:44;21.34;41.22
71173;DHT22;58875;51.996;4.504;2022-07-06T08:30:10;21.37;41.97
71173;DHT22;58875;51.996;4.504;2022-07-06T08:32:44;21.35;42.74
71173;DHT22;58875;51.996;4.504;2022-07-06T08:35:10;21.23;41.45
71173;DHT22;58875;51.996;4.504;2022-07-06T08:37:36;21.10;40.10
71173;DHT22;58875;51.996;4.504;2022-07-06T08:40:03;20.75;42.91
71173;DHT22;58875;51.996;4.504;2022-07-06T08:42:33;20.75;43.47
71173;DHT22;58875;51.996;4.504;2022-07-06T08:45:01;20.63;42.10
71173;DHT22;58875;51.996;4.504;2022-07-06T08:47:28;20.48;43.60
71173;DHT22;58875;51.996;4.504;2022-07-06T08:49:54;20.59;44.94
71173;DHT22;58875;51.996;4.504;2022-07-06T08:52:23;20.59;47.49
71173;DHT22;58875;51.996;4.504;2022-07-06T08:54:49;20.66;42.78
71173;DHT22;58875;51.996;4.504;2022-07-06T08:57:15;20.68;44.63
71173;DHT22;58875;51.996;4.504;2022-07-06T08:59:40;20.52;41.87
71173;DHT22;58875;51.996;4.504;2022-07-06T09:02:10;20.61;42.26
71173;DHT22;58875;51.996;4.504;2022-07-06T09:04:37;20.59;43.51
71173;DHT22;58875;51.996;4.504;2022-07-06T09:07:05;20.62;46.15
71173;DHT22;58875;51.996;4.504;2022-07-06T09:09:31;20.92;43.20
71173;DHT22;58875;51.996;4.504;2022-07-06T09:11:57;20.76;41.95
71173;DHT22;58875;51.996;4.504;2022-07-06T09:14:23;20.75;43.67
71173;DHT22;58875;51.996;4.504;2022-07-06T09:17:09;21.07;43.83
71173;DHT22;58875;51.996;4.504;2022-07-06T09:19:45;21.11;42.56
71173;DHT22;58875;51.996;4.504;2022-07-06T09:22:31;21.14;42.88
71173;DHT22;58875;51.996;4.504;2022-07-06T09:25:09;21.03;43.03
71173;DHT22;58875;51.996;4.504;2022-07-06T09:27:43;20.94;42.56
71173;DHT22;58875;51.996;4.504;2022-07-06T09:30:14;21.04;44.00
71173;DHT22;58875;51.996;4.504;2022-07-06T09:32:46;21.28;40.53
71173;DHT22;58875;51.996;4.504;2022-07-06T09:35:37;21.19;44.71
71173;DHT22;58875;51.996;4.504;2022-07-06T09:40:34;21.41;44.53
71173;DHT22;58875;51.996;4.504;2022-07-06T09:45:37;21.08;43.22
71173;DHT22;58875;51.996;4.504;2022-07-06T09:48:10;21.04;43.93
71173;DHT22;58875;51.996;4.504;2022-07-06T09:50:43;21.13;41.43
71173;DHT22;58875;51.996;4.504;2022-07-06T09:53:12;21.20;43.30
71173;DHT22;58875;51.996;4.504;2022-07-06T09:55:38;21.34;45.86
71173;DHT22;58875;51.996;4.504;2022-07-06T09:58:11;21.37;42.93
71173;DHT22;58875;51.996;4.504;2022-07-06T10:00:36;21.66;43.12
71173;DHT22;58875;51.996;4.504;2022-07-06T10:03:04;21.82;42.39
71173;DHT22;58875;51.996;4.504;2022-07-06T10:05:31;21.58;39.94
71173;DHT22;58875;51.996;4.504;2022-07-06T10:08:00;21.64;41.70
71173;DHT22;58875;51.996;4.504;2022-07-06T10:10:28;21.77;40.74
71173;DHT22;58875;51.996;4.504;2022-07-06T10:12:56;22.10;42.05
71173;DHT22;58875;51.996;4.504;2022-07-06T10:15:26;22.13;40.81
71173;DHT22;58875;51.996;4.504;2022-07-06T10:17:53;21.69;42.14
71173;DHT22;58875;51.996;4.504;2022-07-06T10:20:20;21.59;44.60
71173;DHT22;58875;51.996;4.504;2022-07-06T10:22:50;21.85;41.91
71173;DHT22;58875;51.996;4.504;2022-07-06T10:25:17;22.32;45.76
71173;DHT22;58875;51.996;4.504;2022-07-06T10:27:46;22.32;43.01
71173;DHT22;58875;51.996;4.504;2022-07-06T10:30:13;22.15;39.86
71173;DHT22;58875;51.996;4.504;2022-07-06T10:32:42;22.37;43.86
71173;DHT22;58875;51.996;4.504;2022-07-06T10:35:09;22.45;42.03
71173;DHT22;58875;51.996;4.504;2022-07-06T10:37:35;22.66;40.54
71173;DHT22;58875;51.996;4.504;2022-07-06T10:40:01;22.54;39.41
71173;DHT22;58875;51.996;4.504;2022-07-06T10:42:48;22.46;40.57
71173;DHT22;58875;51.996;4.504;2022-07-06T10:48:19;22.59;41.39
71173;DHT22;58875;51.996;4.504;2022-07-06T10:50:53;22.56;40.37
71173;DHT22;58875;51.996;4.504;2022-07-06T10:53:25;22.36;39.46
71173;DHT22;58875;51.996;4.504;2022-07-06T10:55:54;22.50;40.41
71173;DHT22;58875;51.996;4.504;2022-07-06T10:58:50;22.37;40.31
71173;DHT22;58875;51.996;4.504;2022-07-06T11:01:20;22.57;39.54
71173;DHT22;58875;51.996;4.504;2022-07-06T11:04:04;22.28;41.66
71173;DHT22;58875;51.996;4.504;2022-07-06T11:06:36;22.23;38.82
71173;DHT22;58875;51.996;4.504;2022-07-06T11:09:04;22.33;41.75
71173;DHT22;58875;51.996;4.504;2022-07-06T11:14:03;22.80;41.06
71173;DHT22;58875;51.996;4.504;2022-07-06T11:16:33;22.54;42.19
71173;DHT22;58875;51.996;4.504;2022-07-06T11:22:05;22.49;40.16
71173;DHT22;58875;51.996;4.504;2022-07-06T11:24:37;22.30;40.78
71173;DHT22;58875;51.996;4.504;2022-07-06T11:27:03;21.84;41.69
71173;DHT22;58875;51.996;4.504;2022-07-06T11:29:29;21.78;42.77
71173;DHT22;58875;51.996;4.504;2022-07-06T11:31:58;22.05;42.43
71173;DHT22;58875;51.996;4.504;2022-07-06T11:34:28;22.68;42.21
71173;DHT22;58875;51.996;4.504;2022-07-06T11:37:04;22.74;42.72
71173;DHT22;58875;51.996;4.504;2022-07-06T11:39:31;22.81;41.44
71173;DHT22;58875;51.996;4.504;2022-07-06T11:41:58;22.47;42.41
71173;DHT22;58875;51.996;4.504;2022-07-06T11:44:26;22.53;42.54
71173;DHT22;58875;51.996;4.504;2022-07-06T11:46:52;22.90;42.43
71173;DHT22;58875;51.996;4.504;2022-07-06T11:49:21;23.31;41.03
71173;DHT22;58875;51.996;4.504;2022-07-06T11:51:47;23.31;41.22
71173;DHT22;58875;51.996;4.504;2022-07-06T11:54:18;23.31;43.59
71173;DHT22;58875;51.996;4.504;2022-07-06T11:56:50;22.78;42.52
71173;DHT22;58875;51.996;4.504;2022-07-06T11:59:32;22.67;42.20
71173;DHT22;58875;51.996;4.504;2022-07-06T12:04:28;22.56;43.41
71173;DHT22;58875;51.996;4.504;2022-07-06T12:07:00;22.70;42.39
71173;DHT22;58875;51.996;4.504;2022-07-06T12:09:29;22.59;42.54
71173;DHT22;58875;51.996;4.504;2022-07-06T12:11:55;22.22;41.91
71173;DHT22;58875;51.996;4.504;2022-07-06T12:14:21;21.85;42.72
71173;DHT22;58875;51.996;4.504;2022-07-06T12:16:48;22.09;43.62
71173;DHT22;58875;51.996;4.504;2022-07-06T12:19:14;22.12;42.12
71173;DHT22;58875;51.996;4.504;2022-07-06T12:21:47;22.20;43.10
71173;DHT22;58875;51.996;4.504;2022-07-06T12:26:48;21.65;42.39
71173;DHT22;58875;51.996;4.504;2022-07-06T12:29:14;21.91;43.57
71173;DHT22;58875;51.996;4.504;2022-07-06T12:31:42;21.84;42.19
71173;DHT22;58875;51.996;4.504;2022-07-06T12:34:16;22.01;44.84
71173;DHT22;58875;51.996;4.504;2022-07-06T12:39:19;22.25;43.31
71173;DHT22;58875;51.996;4.504;2022-07-06T12:41:48;21.91;42.01
71173;DHT22;58875;51.996;4.504;2022-07-06T12:44:17;21.96;44.75
71173;DHT22;58875;51.996;4.504;2022-07-06T12:46:43;21.69;44.06
71173;DHT22;58875;51.996;4.504;2022-07-06T12:49:22;21.75;44.66
71173;DHT22;58875;51.996;4.504;2022-07-06T12:51:50;21.77;43.29
71173;DHT22;58875;51.996;4.504;2022-07-06T12:54:16;21.73;44.48
71173;DHT22;58875;51.996;4.504;2022-07-06T12:57:02;21.64;43.80
71173;DHT22;58875;51.996;4.504;2022-07-06T12:59:30;21.69;44.88
71173;DHT22;58875;51.996;4.504;2022-07-06T13:01:56;21.74;44.34
71173;DHT22;58875;51.996;4.504;2022-07-06T13:04:27;21.86;45.63
71173;DHT22;58875;51.996;4.504;2022-07-06T13:06:57;22.20;44.52
71173;DHT22;58875;51.996;4.504;2022-07-06T13:09:22;22.40;44.35
71173;DHT22;58875;51.996;4.504;2022-07-06T13:11:48;22.40;44.16
71173;DHT22;58875;51.996;4.504;2022-07-06T13:14:16;22.22;44.19
71173;DHT22;58875;51.996;4.504;2022-07-06T13:16:43;22.17;45.64
71173;DHT22;58875;51.996;4.504;2022-07-06T13:19:12;22.15;47.31
71173;DHT22;58875;51.996;4.504;2022-07-06T13:21:41;21.74;45.68
71173;DHT22;58875;51.996;4.504;2022-07-06T13:26:35;21.54;46.96
71173;DHT22;58875;51.996;4.504;2022-07-06T13:29:03;21.47;47.52
71173;DHT22;58875;51.996;4.504;2022-07-06T13:31:30;21.35;50.09
71173;DHT22;58875;51.996;4.504;2022-07-06T13:33:56;21.31;49.56
71173;DHT22;58875;51.996;4.504;2022-07-06T13:36:25;21.30;49.84
71173;DHT22;58875;51.996;4.504;2022-07-06T13:38:50;21.34;49.46
71173;DHT22;58875;51.996;4.504;2022-07-06T13:41:16;21.27;50.41
71173;DHT22;58875;51.996;4.504;2022-07-06T13:43:42;21.37;51.68
71173;DHT22;58875;51.996;4.504;2022-07-06T13:46:07;21.43;50.96
71173;DHT22;58875;51.996;4.504;2022-07-06T13:48:35;21.55;50.89
71173;DHT22;58875;51.996;4.504;2022-07-06T13:51:00;21.45;49.92
71173;DHT22;58875;51.996;4.504;2022-07-06T13:53:26;21.16;50.59
71173;DHT22;58875;51.996;4.504;2022-07-06T13:55:52;21.07;53.41
71173;DHT22;58875;51.996;4.504;2022-07-06T13:58:19;21.03;52.18
71173;DHT22;58875;51.996;4.504;2022-07-06T14:00:44;20.92;53.09
71173;DHT22;58875;51.996;4.504;2022-07-06T14:03:10;21.22;52.97
71173;DHT22;58875;51.996;4.504;2022-07-06T14:05:35;21.33;53.48
71173;DHT22;58875;51.996;4.504;2022-07-06T14:08:01;21.51;54.07
71173;DHT22;58875;51.996;4.504;2022-07-06T14:10:28;21.47;53.51
71173;DHT22;58875;51.996;4.504;2022-07-06T14:12:56;20.90;54.80
71173;DHT22;58875;51.996;4.504;2022-07-06T14:15:22;20.80;57.32
71173;DHT22;58875;51.996;4.504;2022-07-06T14:17:47;20.96;55.55
71173;DHT22;58875;51.996;4.504;2022-07-06T14:20:14;21.02;56.11
71173;DHT22;58875;51.996;4.504;2022-07-06T14:22:40;21.26;55.47
71173;DHT22;58875;51.996;4.504;2022-07-06T14:25:06;21.10;55.67
71173;DHT22;58875;51.996;4.504;2022-07-06T14:27:33;21.00;56.68
71173;DHT22;58875;51.996;4.504;2022-07-06T14:29:59;21.16;55.67
71173;DHT22;58875;51.996;4.504;2022-07-06T14:32:24;21.38;54.93
71173;DHT22;58875;51.996;4.504;2022-07-06T14:34:50;21.62;54.56
71173;DHT22;58875;51.996;4.504;2022-07-06T14:37:16;21.69;54.99
71173;DHT22;58875;51.996;4.504;2022-07-06T14:39:42;21.69;55.35
71173;DHT22;58875;51.996;4.504;2022-07-06T14:42:08;21.50;55.25
71173;DHT22;58875;51.996;4.504;2022-07-06T14:44:34;21.51;56.37
71173;DHT22;58875;51.996;4.504;2022-07-06T14:47:00;21.58;54.34
71173;DHT22;58875;51.996;4.504;2022-07-06T14:49:28;21.51;54.16
71173;DHT22;58875;51.996;4.504;2022-07-06T14:51:54;21.07;55.02
71173;DHT22;58875;51.996;4.504;2022-07-06T14:54:19;21.13;55.17
71173;DHT22;58875;51.996;4.504;2022-07-06T14:56:46;20.99;54.54
71173;DHT22;58875;51.996;4.504;2022-07-06T14:59:12;21.03;55.32
71173;DHT22;58875;51.996;4.504;2022-07-06T15:01:37;21.07;55.54
71173;DHT22;58875;51.996;4.504;2022-07-06T15:04:03;21.11;54.83
71173;DHT22;58875;51.996;4.504;2022-07-06T15:06:29;21.22;53.72
71173;DHT22;58875;51.996;4.504;2022-07-06T15:08:54;21.26;53.12
71173;DHT22;58875;51.996;4.504;2022-07-06T15:11:20;21.43;53.36
71173;DHT22;58875;51.996;4.504;2022-07-06T15:13:45;21.26;53.64
71173;DHT22;58875;51.996;4.504;2022-07-06T15:16:11;21.10;54.10
71173;DHT22;58875;51.996;4.504;2022-07-06T15:18:37;20.96;54.69
71173;DHT22;58875;51.996;4.504;2022-07-06T15:21:02;21.07;54.75
71173;DHT22;58875;51.996;4.504;2022-07-06T15:23:28;20.96;55.23
71173;DHT22;58875;51.996;4.504;2022-07-06T15:25:54;20.99;54.59
71173;DHT22;58875;51.996;4.504;2022-07-06T15:28:20;21.08;54.42
71173;DHT22;58875;51.996;4.504;2022-07-06T15:30:46;20.87;53.16
71173;DHT22;58875;51.996;4.504;2022-07-06T15:33:12;20.85;52.96
71173;DHT22;58875;51.996;4.504;2022-07-06T15:35:37;20.94;53.77
71173;DHT22;58875;51.996;4.504;2022-07-06T15:38:03;20.97;54.14
71173;DHT22;58875;51.996;4.504;2022-07-06T15:40:29;21.04;54.85
71173;DHT22;58875;51.996;4.504;2022-07-06T15:42:59;21.20;54.35
71173;DHT22;58875;51.996;4.504;2022-07-06T15:45:26;21.16;55.04
71173;DHT22;58875;51.996;4.504;2022-07-06T15:47:53;21.24;53.99
71173;DHT22;58875;51.996;4.504;2022-07-06T15:50:18;21.10;54.78
71173;DHT22;58875;51.996;4.504;2022-07-06T15:52:46;21.00;54.84
71173;DHT22;58875;51.996;4.504;2022-07-06T15:55:12;21.02;55.84
71173;DHT22;58875;51.996;4.504;2022-07-06T15:57:37;21.16;55.58